Time;durP1;ratioP1;P1;durP2;ratioP2;P2;SDS_P1;SDS_P2;PMS_P1;PMS_P2;Temp;Humidity;BMP_temperature;BMP_pressure;BME280_temperature;BME280_humidity;BME280_pressure;Samples;Min_cycle;Max_cycle;Signal;HPM_P1;HPM_P2
2022/05/13 00:00:09;;;;;;;4.78;1.10;;;16.40;51.70;;;;;;5139109;27;20049;-67
2022/05/13 00:02:34;;;;;;;3.72;1.08;;;16.40;51.80;;;;;;5117821;27;20341;-67
2022/05/13 00:05:01;;;;;;;5.80;1.42;;;16.40;51.90;;;;;;5133237;27;20027;-66
2022/05/13 00:07:27;;;;;;;4.07;1.25;;;16.40;52.00;;;;;;5131092;27;20030;-67
2022/05/13 00:10:05;;;;;;;4.25;1.50;;;16.30;52.00;;;;;;5136951;27;20364;-67
2022/05/13 00:12:35;;;;;;;5.30;1.52;;;16.30;52.10;;;;;;5132420;27;20047;-67
2022/05/13 00:15:03;;;;;;;5.63;1.55;;;16.30;52.20;;;;;;5122751;27;20058;-66
2022/05/13 00:17:29;;;;;;;4.72;1.40;;;16.30;52.90;;;;;;5133730;27;20027;-66
2022/05/13 00:19:55;;;;;;;3.83;1.20;;;16.30;52.40;;;;;;5137661;27;20463;-67
2022/05/13 00:22:21;;;;;;;5.82;1.60;;;16.20;52.40;;;;;;5123008;27;20448;-67
2022/05/13 00:24:47;;;;;;;4.18;1.40;;;16.20;52.50;;;;;;5122345;27;20031;-67
2022/05/13 00:27:13;;;;;;;4.25;1.30;;;16.20;52.50;;;;;;5128592;27;20436;-66
2022/05/13 00:29:39;;;;;;;4.57;1.38;;;16.20;52.60;;;;;;5133176;27;20455;-66
2022/05/13 00:32:05;;;;;;;3.92;1.10;;;16.20;52.70;;;;;;5124221;27;20038;-66
2022/05/13 00:34:33;;;;;;;4.10;1.23;;;16.10;52.70;;;;;;5121338;27;20061;-67
2022/05/13 00:36:59;;;;;;;5.90;1.67;;;16.10;52.80;;;;;;5125845;27;20031;-66
2022/05/13 00:39:24;;;;;;;7.10;1.55;;;16.10;52.90;;;;;;5135845;27;20045;-67
2022/05/13 00:41:50;;;;;;;5.05;1.30;;;16.00;52.90;;;;;;5117067;27;20042;-67
2022/05/13 00:44:16;;;;;;;7.07;1.65;;;16.00;53.00;;;;;;5120813;27;20066;-68
2022/05/13 00:46:41;;;;;;;4.18;1.17;;;16.00;53.00;;;;;;5122580;27;20410;-67
2022/05/13 00:49:11;;;;;;;6.38;1.70;;;16.00;53.10;;;;;;5135718;27;20038;-67
2022/05/13 00:51:40;;;;;;;2.70;1.08;;;16.00;53.10;;;;;;5131533;27;20016;-67
2022/05/13 00:54:07;;;;;;;5.20;1.50;;;16.00;53.10;;;;;;5122856;27;20105;-67
2022/05/13 00:56:34;;;;;;;7.10;1.73;;;15.90;53.20;;;;;;5134649;27;20027;-67
2022/05/13 00:59:05;;;;;;;4.63;1.40;;;15.90;53.20;;;;;;5117077;27;20042;-67
2022/05/13 01:01:31;;;;;;;6.03;1.40;;;15.90;53.40;;;;;;5129011;27;20105;-67
2022/05/13 01:04:07;;;;;;;5.18;1.50;;;15.80;53.40;;;;;;5128021;27;20127;-67
2022/05/13 01:06:33;;;;;;;7.30;1.77;;;15.80;53.50;;;;;;5126751;27;20514;-67
2022/05/13 01:09:00;;;;;;;5.70;1.60;;;15.80;53.50;;;;;;5121176;27;20031;-67
2022/05/13 01:11:28;;;;;;;4.95;1.55;;;15.80;53.60;;;;;;5136953;27;20100;-67
2022/05/13 01:14:07;;;;;;;5.53;1.42;;;15.80;53.70;;;;;;5121252;27;20027;-67
2022/05/13 01:18:05;;;;;;;4.18;1.45;;;15.70;53.80;;;;;;5117541;27;20028;-67
2022/05/13 01:19:18;;;;;;;5.53;1.50;;;15.70;53.80;;;;;;5123086;27;20039;-67
2022/05/13 01:21:46;;;;;;;4.85;1.23;;;15.70;53.90;;;;;;5126486;27;20031;-67
2022/05/13 01:24:11;;;;;;;7.78;1.40;;;15.70;53.90;;;;;;5129763;27;20034;-66
2022/05/13 01:26:39;;;;;;;5.78;1.23;;;15.70;54.00;;;;;;5129862;27;20015;-67
2022/05/13 01:29:04;;;;;;;5.93;1.65;;;15.70;54.10;;;;;;5134086;27;20058;-68
2022/05/13 01:31:34;;;;;;;6.15;1.58;;;15.60;54.20;;;;;;5118539;27;20027;-67
2022/05/13 01:34:02;;;;;;;4.40;1.50;;;15.60;54.30;;;;;;5124667;27;20046;-68
2022/05/13 01:36:29;;;;;;;6.85;1.80;;;15.60;54.30;;;;;;5134063;27;20087;-67
2022/05/13 01:38:55;;;;;;;4.20;1.38;;;15.60;54.40;;;;;;5119577;27;20406;-67
2022/05/13 01:41:21;;;;;;;6.80;2.10;;;15.60;54.40;;;;;;5119982;27;20023;-67
2022/05/13 01:43:48;;;;;;;5.30;1.60;;;15.60;54.50;;;;;;5125479;27;20035;-67
2022/05/13 01:46:14;;;;;;;5.13;1.60;;;15.60;54.60;;;;;;5113672;28;20028;-68
2022/05/13 01:48:41;;;;;;;5.30;1.38;;;15.50;54.70;;;;;;5127683;27;20440;-67
2022/05/13 01:51:07;;;;;;;7.15;1.50;;;15.50;54.80;;;;;;5134679;27;20114;-67
2022/05/13 01:53:33;;;;;;;4.50;1.60;;;15.50;54.90;;;;;;5127626;27;20081;-67
2022/05/13 01:55:58;;;;;;;4.55;1.50;;;15.50;54.90;;;;;;5131795;27;20027;-67
2022/05/13 01:58:25;;;;;;;6.07;1.50;;;15.50;55.00;;;;;;5129606;27;20313;-67
2022/05/13 02:00:54;;;;;;;5.35;1.40;;;15.40;55.10;;;;;;5134981;27;20023;-67
2022/05/13 02:06:05;;;;;;;6.10;1.33;;;15.40;55.30;;;;;;5129014;27;20115;-67
2022/05/13 02:08:32;;;;;;;4.25;1.50;;;15.40;55.30;;;;;;5125187;27;20036;-67
2022/05/13 02:10:58;;;;;;;6.38;1.88;;;15.40;55.40;;;;;;5115503;27;20030;-68
2022/05/13 02:13:24;;;;;;;3.70;1.73;;;15.40;55.40;;;;;;5121768;27;20355;-67
2022/05/13 02:15:52;;;;;;;6.68;1.67;;;15.40;55.50;;;;;;5126476;27;20114;-67
2022/05/13 02:18:19;;;;;;;5.05;1.60;;;15.40;55.50;;;;;;5128877;27;20158;-67
2022/05/13 02:20:45;;;;;;;7.15;1.90;;;15.40;55.70;;;;;;5126079;27;20027;-65
2022/05/13 02:23:10;;;;;;;8.00;1.70;;;15.30;55.70;;;;;;5130072;27;20050;-66
2022/05/13 02:25:36;;;;;;;6.63;1.50;;;15.30;55.80;;;;;;5132121;27;20444;-66
2022/05/13 02:28:03;;;;;;;7.05;1.80;;;15.30;55.90;;;;;;5134058;27;20068;-66
2022/05/13 02:30:29;;;;;;;7.47;1.92;;;15.30;56.00;;;;;;5133883;27;20016;-66
2022/05/13 02:32:55;;;;;;;7.18;1.67;;;15.30;56.00;;;;;;5122810;27;21346;-67
2022/05/13 02:35:21;;;;;;;2.97;1.25;;;15.30;56.00;;;;;;5118887;27;20058;-67
2022/05/13 02:37:47;;;;;;;6.20;1.63;;;15.30;56.00;;;;;;5134683;27;20117;-67
2022/05/13 02:40:13;;;;;;;6.63;2.30;;;15.30;56.10;;;;;;5130084;27;20055;-67
2022/05/13 02:42:39;;;;;;;6.38;1.73;;;15.40;56.70;;;;;;5128537;27;20035;-67
2022/05/13 02:45:09;;;;;;;6.47;1.77;;;15.30;56.20;;;;;;5117391;27;20329;-67
2022/05/13 02:47:36;;;;;;;10.05;1.95;;;15.30;56.30;;;;;;5135590;27;20363;-67
2022/05/13 02:50:21;;;;;;;6.90;2.03;;;15.30;56.40;;;;;;5126451;27;20027;-67
2022/05/13 02:52:50;;;;;;;6.00;1.80;;;15.30;56.50;;;;;;5135877;27;20043;-67
2022/05/13 02:55:16;;;;;;;6.78;2.00;;;15.30;56.60;;;;;;5115469;27;20035;-67
2022/05/13 02:57:42;;;;;;;5.50;1.80;;;15.30;56.60;;;;;;5134484;27;20031;-66
2022/05/13 03:00:09;;;;;;;7.20;2.08;;;15.30;56.70;;;;;;5117496;27;20027;-66
2022/05/13 03:02:35;;;;;;;5.70;1.85;;;15.30;56.80;;;;;;5130594;27;20030;-66
2022/05/13 03:05:01;;;;;;;7.38;2.10;;;15.30;57.00;;;;;;5129220;28;20031;-66
2022/05/13 03:07:27;;;;;;;7.78;2.13;;;15.30;57.10;;;;;;5133401;28;20084;-66
2022/05/13 03:09:52;;;;;;;9.15;2.28;;;15.30;57.20;;;;;;5126716;28;20019;-66
2022/05/13 03:12:18;;;;;;;9.07;2.42;;;15.30;57.30;;;;;;5118142;28;20038;-66
2022/05/13 03:14:43;;;;;;;7.03;2.40;;;15.30;57.50;;;;;;5115587;27;20030;-66
2022/05/13 03:17:09;;;;;;;9.20;2.60;;;15.30;57.60;;;;;;5128516;27;20061;-66
2022/05/13 03:19:36;;;;;;;7.38;2.00;;;15.30;57.70;;;;;;5128297;27;20053;-66
2022/05/13 03:22:03;;;;;;;10.20;2.50;;;15.30;57.70;;;;;;5130642;27;20155;-66
2022/05/13 03:24:28;;;;;;;8.70;2.65;;;15.30;57.80;;;;;;5128407;27;20035;-66
2022/05/13 03:26:54;;;;;;;7.60;2.50;;;15.30;57.90;;;;;;5136579;27;20023;-66
2022/05/13 03:29:20;;;;;;;9.93;2.67;;;15.30;58.00;;;;;;5135690;27;20019;-66
2022/05/13 03:31:46;;;;;;;9.52;2.90;;;15.30;58.00;;;;;;5136362;27;20091;-67
2022/05/13 03:34:11;;;;;;;8.07;2.58;;;15.30;58.10;;;;;;5125990;27;20130;-66
2022/05/13 03:36:37;;;;;;;9.32;2.70;;;15.30;58.30;;;;;;5135334;27;20031;-66
2022/05/13 03:39:03;;;;;;;7.72;2.63;;;15.40;58.50;;;;;;5135331;27;20027;-66
2022/05/13 03:41:28;;;;;;;11.00;3.25;;;15.30;58.50;;;;;;5137155;27;20035;-66
2022/05/13 03:43:54;;;;;;;9.50;2.67;;;15.30;58.70;;;;;;5125171;27;20046;-66
2022/05/13 03:46:19;;;;;;;8.82;2.70;;;15.30;58.80;;;;;;5134608;27;20038;-66
2022/05/13 03:48:45;;;;;;;14.23;3.13;;;15.30;58.90;;;;;;5126876;27;20145;-66
2022/05/13 03:51:11;;;;;;;8.90;2.55;;;15.30;59.00;;;;;;5135108;27;20459;-66
2022/05/13 03:53:38;;;;;;;9.10;2.55;;;15.30;59.10;;;;;;5127499;27;20028;-67
2022/05/13 03:56:05;;;;;;;10.50;3.08;;;15.30;59.20;;;;;;5120110;27;20035;-66
2022/05/13 03:58:31;;;;;;;9.50;3.05;;;15.40;59.30;;;;;;5127910;27;20035;-66
2022/05/13 04:00:57;;;;;;;12.23;3.47;;;15.30;59.30;;;;;;5124123;27;20379;-66
2022/05/13 04:03:22;;;;;;;11.93;2.80;;;15.30;59.40;;;;;;5135965;27;20038;-66
2022/05/13 04:11:17;;;;;;;8.57;2.90;;;15.30;59.60;;;;;;5118564;27;20444;-66
2022/05/13 04:16:26;;;;;;;10.18;3.55;;;15.30;59.80;;;;;;5128062;27;20039;-67
2022/05/13 04:18:53;;;;;;;9.18;3.40;;;15.30;59.90;;;;;;5126275;27;20042;-67
2022/05/13 04:21:25;;;;;;;10.13;3.47;;;15.30;60.00;;;;;;5136806;27;20030;-66
2022/05/13 04:23:54;;;;;;;7.22;3.15;;;15.30;60.20;;;;;;5133613;27;20038;-66
2022/05/13 04:26:20;;;;;;;11.88;4.00;;;15.30;60.30;;;;;;5132450;27;20027;-67
2022/05/13 04:28:50;;;;;;;9.52;3.10;;;15.20;60.30;;;;;;5131036;27;20035;-67
2022/05/13 04:31:20;;;;;;;8.82;3.00;;;15.20;60.50;;;;;;5131379;27;20146;-67
2022/05/13 04:33:47;;;;;;;10.18;3.67;;;15.20;61.30;;;;;;5122705;27;20039;-67
2022/05/13 04:36:13;;;;;;;8.63;3.78;;;15.20;60.60;;;;;;5117336;27;20108;-66
2022/05/13 04:38:39;;;;;;;12.68;3.33;;;15.20;60.80;;;;;;5122473;27;20066;-67
2022/05/13 04:43:56;;;;;;;8.55;3.20;;;15.20;60.90;;;;;;5101019;28;20538;-67
2022/05/13 04:46:22;;;;;;;11.23;3.45;;;15.20;60.90;;;;;;5123359;27;20044;-67
2022/05/13 04:48:48;;;;;;;10.43;3.50;;;15.30;61.00;;;;;;5115136;28;20077;-67
2022/05/13 04:51:17;;;;;;;13.00;4.18;;;15.30;61.00;;;;;;5136304;27;20042;-67
2022/05/13 04:53:44;;;;;;;10.90;4.00;;;15.30;61.20;;;;;;5109555;27;20024;-67
2022/05/13 04:56:10;;;;;;;10.20;3.85;;;15.30;61.20;;;;;;5112737;28;20467;-67
2022/05/13 04:58:36;;;;;;;9.63;3.33;;;15.20;61.40;;;;;;5088035;28;20093;-68
2022/05/13 05:01:03;;;;;;;12.52;4.18;;;15.20;61.50;;;;;;5111360;28;20115;-68
2022/05/13 05:03:30;;;;;;;11.82;4.03;;;15.30;61.60;;;;;;5089131;28;20430;-66
2022/05/13 05:05:57;;;;;;;10.73;3.97;;;15.20;61.60;;;;;;5113735;28;20665;-67
2022/05/13 05:08:23;;;;;;;9.55;3.60;;;15.30;61.70;;;;;;5114767;28;20052;-65
2022/05/13 05:10:49;;;;;;;8.00;3.65;;;15.30;61.70;;;;;;5112241;28;20333;-66
2022/05/13 05:13:25;;;;;;;11.35;4.63;;;15.20;61.80;;;;;;5101425;28;20372;-66
2022/05/13 05:15:51;;;;;;;14.57;4.72;;;15.30;62.10;;;;;;5112761;28;20032;-67
2022/05/13 05:18:17;;;;;;;13.82;4.07;;;15.30;62.00;;;;;;5098120;28;20042;-67
2022/05/13 05:20:43;;;;;;;15.35;4.72;;;15.30;61.90;;;;;;5103128;28;20485;-68
2022/05/13 05:23:14;;;;;;;9.57;3.60;;;15.50;61.80;;;;;;5118353;27;20126;-67
2022/05/13 05:25:41;;;;;;;12.45;4.43;;;15.60;61.80;;;;;;5129987;27;20119;-67
2022/05/13 05:28:07;;;;;;;12.32;4.85;;;15.70;61.60;;;;;;5135027;27;20031;-67
2022/05/13 05:30:32;;;;;;;10.57;4.63;;;15.70;61.50;;;;;;5128697;27;20073;-67
2022/05/13 05:32:58;;;;;;;12.27;4.32;;;15.90;61.30;;;;;;5136784;27;20416;-67
2022/05/13 05:35:24;;;;;;;13.02;4.55;;;16.00;61.10;;;;;;5134829;27;20095;-67
2022/05/13 05:37:50;;;;;;;13.75;4.22;;;16.10;60.90;;;;;;5136576;27;20046;-67
2022/05/13 05:40:16;;;;;;;11.73;4.65;;;16.10;60.90;;;;;;5125894;27;20032;-67
2022/05/13 05:42:42;;;;;;;12.57;5.35;;;16.10;61.10;;;;;;5114712;28;20031;-67
2022/05/13 05:45:10;;;;;;;16.38;4.97;;;16.00;61.20;;;;;;5126307;27;20316;-67
2022/05/13 05:47:36;;;;;;;12.00;5.05;;;16.00;61.50;;;;;;5117426;27;20051;-67
2022/05/13 05:50:08;;;;;;;13.48;5.40;;;16.00;61.70;;;;;;5118573;27;20413;-65
2022/05/13 05:52:33;;;;;;;11.90;4.85;;;16.00;61.90;;;;;;5116809;27;20024;-66
2022/05/13 05:58:01;;;;;;;15.35;5.50;;;16.00;62.10;;;;;;5127721;27;20030;-67
2022/05/13 06:00:28;;;;;;;14.00;4.75;;;15.90;62.20;;;;;;5116119;27;20046;-66
2022/05/13 06:02:54;;;;;;;12.43;4.88;;;16.00;62.30;;;;;;5125674;27;20031;-66
2022/05/13 06:05:20;;;;;;;14.70;5.30;;;16.10;62.20;;;;;;5127179;27;20301;-65
2022/05/13 06:07:46;;;;;;;12.00;4.82;;;16.20;62.00;;;;;;5132442;27;20457;-66
2022/05/13 06:10:13;;;;;;;14.18;5.72;;;16.30;62.00;;;;;;5135428;27;20383;-66
2022/05/13 06:12:42;;;;;;;14.30;5.40;;;16.30;62.10;;;;;;5129580;27;20027;-66
2022/05/13 06:15:08;;;;;;;12.35;5.45;;;16.30;62.10;;;;;;5119467;27;20026;-66
2022/05/13 06:17:34;;;;;;;16.23;5.20;;;16.30;62.10;;;;;;5118264;27;20024;-66
2022/05/13 06:20:06;;;;;;;13.80;5.10;;;16.30;62.20;;;;;;5116835;27;20099;-66
2022/05/13 06:22:32;;;;;;;13.10;5.15;;;16.30;62.40;;;;;;5117261;27;20035;-66
2022/05/13 06:24:58;;;;;;;13.50;5.75;;;16.40;62.40;;;;;;5129076;27;20027;-67
2022/05/13 06:27:23;;;;;;;12.50;5.20;;;16.40;62.40;;;;;;5125222;27;20302;-67
2022/05/13 06:29:51;;;;;;;17.00;5.53;;;16.40;62.50;;;;;;5119518;27;20363;-65
2022/05/13 06:32:17;;;;;;;14.10;5.50;;;16.40;62.60;;;;;;5123223;27;20038;-66
2022/05/13 06:34:43;;;;;;;14.65;5.70;;;16.50;62.70;;;;;;5127137;27;20428;-67
2022/05/13 06:37:08;;;;;;;12.77;5.30;;;16.50;62.60;;;;;;5126140;27;20102;-66
2022/05/13 06:39:34;;;;;;;12.93;5.10;;;16.50;62.70;;;;;;5124083;27;20027;-67
2022/05/13 06:41:59;;;;;;;13.30;5.45;;;16.50;62.80;;;;;;5122325;27;20426;-67
2022/05/13 06:44:25;;;;;;;15.75;5.68;;;16.60;62.90;;;;;;5098021;27;20061;-67
2022/05/13 06:46:50;;;;;;;14.18;5.22;;;16.60;62.90;;;;;;5130185;27;20355;-67
2022/05/13 06:49:16;;;;;;;14.38;5.75;;;16.60;63.00;;;;;;5113889;28;20070;-65
2022/05/13 06:51:42;;;;;;;13.73;5.93;;;16.60;63.10;;;;;;5135068;27;20054;-64
2022/05/13 06:54:11;;;;;;;12.45;5.28;;;16.70;63.10;;;;;;5119318;27;20419;-65
2022/05/13 06:56:40;;;;;;;12.68;5.70;;;16.80;63.20;;;;;;5130168;27;20035;-65
2022/05/13 06:59:06;;;;;;;12.63;5.47;;;16.70;63.30;;;;;;5134368;27;20080;-67
2022/05/13 07:01:32;;;;;;;15.30;6.32;;;16.70;63.30;;;;;;5134889;27;20471;-64
2022/05/13 07:03:57;;;;;;;14.70;5.65;;;16.80;63.40;;;;;;5115346;27;20028;-65
2022/05/13 07:06:23;;;;;;;13.65;6.00;;;16.80;63.30;;;;;;5115010;28;20034;-65
2022/05/13 07:08:50;;;;;;;13.95;5.63;;;16.80;63.30;;;;;;5132283;28;20034;-65
2022/05/13 07:11:20;;;;;;;13.18;5.43;;;16.90;63.40;;;;;;5133911;27;20030;-65
2022/05/13 07:13:46;;;;;;;15.10;5.93;;;16.90;63.30;;;;;;5135281;27;20146;-65
2022/05/13 07:16:12;;;;;;;14.98;6.30;;;17.00;63.30;;;;;;5114242;28;20130;-65
2022/05/13 07:18:38;;;;;;;15.90;6.88;;;17.00;63.20;;;;;;5133445;28;20083;-64
2022/05/13 07:21:05;;;;;;;13.45;6.22;;;17.00;63.20;;;;;;5135466;27;20035;-65
2022/05/13 07:23:30;;;;;;;13.88;6.60;;;17.00;63.20;;;;;;5131480;27;20073;-65
2022/05/13 07:25:57;;;;;;;15.05;6.28;;;17.10;63.20;;;;;;5114679;28;20066;-65
2022/05/13 07:28:23;;;;;;;13.75;6.75;;;17.10;63.00;;;;;;5130672;28;20062;-65
2022/05/13 07:30:49;;;;;;;13.65;6.20;;;17.20;62.90;;;;;;5125862;28;20028;-65
2022/05/13 07:33:14;;;;;;;13.02;5.95;;;17.20;62.80;;;;;;5115597;28;20034;-65
2022/05/13 07:35:40;;;;;;;14.82;6.40;;;17.30;62.70;;;;;;5114914;28;20051;-65
2022/05/13 07:38:07;;;;;;;12.02;6.00;;;17.40;62.50;;;;;;5127137;27;20035;-65
2022/05/13 07:43:18;;;;;;;13.98;5.65;;;17.70;61.90;;;;;;5127636;28;20458;-66
2022/05/13 07:45:43;;;;;;;16.50;6.53;;;17.90;61.50;;;;;;5131851;27;20107;-67
2022/05/13 07:48:09;;;;;;;13.48;5.82;;;18.10;61.20;;;;;;5129753;27;20041;-66
2022/05/13 07:50:35;;;;;;;12.23;5.40;;;18.30;60.90;;;;;;5136945;27;20289;-66
2022/05/13 07:53:01;;;;;;;13.30;5.57;;;18.30;60.50;;;;;;5133151;27;20463;-66
2022/05/13 07:55:27;;;;;;;11.75;5.28;;;18.30;60.50;;;;;;5124336;28;20367;-66
2022/05/13 07:57:53;;;;;;;12.52;6.13;;;18.50;60.00;;;;;;5115532;28;20110;-66
2022/05/13 08:00:26;;;;;;;14.55;6.45;;;18.50;59.60;;;;;;5129766;27;20065;-65
2022/05/13 08:02:53;;;;;;;12.95;6.32;;;18.50;59.70;;;;;;5126739;27;20352;-65
2022/05/13 08:05:19;;;;;;;13.07;5.80;;;18.30;59.90;;;;;;5118441;27;20032;-65
2022/05/13 08:07:44;;;;;;;11.77;6.43;;;18.20;60.10;;;;;;5120191;27;20046;-65
2022/05/13 08:10:10;;;;;;;13.15;6.30;;;18.10;60.10;;;;;;5133112;27;20089;-65
2022/05/13 08:12:36;;;;;;;12.75;5.97;;;18.10;60.00;;;;;;5134078;27;20413;-66
2022/05/13 08:15:02;;;;;;;14.13;6.18;;;18.10;60.00;;;;;;5130492;27;20055;-65
2022/05/13 08:17:33;;;;;;;12.23;5.53;;;18.00;60.00;;;;;;5139816;27;20076;-64
2022/05/13 08:19:59;;;;;;;16.40;6.18;;;17.90;60.10;;;;;;5131867;27;20020;-64
2022/05/13 08:22:24;;;;;;;12.57;5.75;;;17.90;60.40;;;;;;5133019;27;20432;-64
2022/05/13 08:24:50;;;;;;;11.68;5.93;;;17.80;60.30;;;;;;5109745;28;20055;-65
2022/05/13 08:27:16;;;;;;;12.68;4.82;;;17.70;60.40;;;;;;5126137;27;20060;-66
2022/05/13 08:29:41;;;;;;;11.98;4.90;;;17.70;60.50;;;;;;5130211;27;20034;-65
2022/05/13 08:32:07;;;;;;;15.70;5.88;;;17.80;60.50;;;;;;5118092;27;20051;-65
2022/05/13 08:34:33;;;;;;;9.52;4.80;;;17.80;60.40;;;;;;5117152;28;20027;-66
2022/05/13 08:36:59;;;;;;;10.70;4.57;;;18.00;60.00;;;;;;5116894;28;20118;-66
2022/05/13 08:39:24;;;;;;;11.25;4.78;;;18.40;59.40;;;;;;5099642;28;20429;-66
2022/05/13 08:42:04;;;;;;;12.32;4.68;;;18.50;58.90;;;;;;5117062;28;20058;-66
2022/05/13 08:44:30;;;;;;;9.40;4.30;;;18.40;58.80;;;;;;5126923;27;20379;-66
2022/05/13 08:47:10;;;;;;;11.77;4.38;;;18.40;59.00;;;;;;5138503;27;20023;-66
2022/05/13 08:49:54;;;;;;;9.75;4.05;;;18.40;59.00;;;;;;5136967;27;20103;-66
2022/05/13 08:55:29;;;;;;;12.07;4.35;;;18.20;59.40;;;;;;5121924;27;20090;-65
2022/05/13 08:57:57;;;;;;;10.30;4.55;;;18.00;59.60;;;;;;5120856;27;20034;-65
2022/05/13 09:00:44;;;;;;;10.05;3.80;;;18.00;59.70;;;;;;5116946;28;20027;-65
2022/05/13 09:03:28;;;;;;;12.63;3.55;;;18.40;59.30;;;;;;5116097;28;20092;-66
2022/05/13 09:05:53;;;;;;;8.98;2.60;;;18.70;58.50;;;;;;5116309;28;20449;-65
2022/05/13 09:08:20;;;;;;;9.63;2.47;;;18.90;57.80;;;;;;5136903;27;20026;-66
2022/05/13 09:11:25;;;;;;;7.63;2.25;;;19.00;57.30;;;;;;5137586;27;20117;-66
2022/05/13 09:14:12;;;;;;;5.60;1.90;;;19.00;56.50;;;;;;5136671;27;20035;-66
2022/05/13 09:16:53;;;;;;;3.55;1.40;;;19.20;55.70;;;;;;5135600;27;20035;-65
2022/05/13 09:19:38;;;;;;;4.13;1.40;;;19.40;54.70;;;;;;5136320;27;20104;-66
2022/05/13 09:22:10;;;;;;;7.28;1.73;;;19.30;54.10;;;;;;5135048;27;20367;-65
2022/05/13 09:24:36;;;;;;;5.22;1.40;;;19.20;54.30;;;;;;5136538;27;20035;-66
2022/05/13 09:27:02;;;;;;;5.43;1.30;;;19.00;54.40;;;;;;5137390;27;20031;-65
2022/05/13 09:29:39;;;;;;;4.53;1.20;;;19.30;54.20;;;;;;5137379;27;20080;-65
2022/05/13 09:32:11;;;;;;;8.40;1.70;;;19.70;53.30;;;;;;5136390;27;20023;-66
2022/05/13 09:34:57;;;;;;;4.50;1.70;;;19.70;52.70;;;;;;5137380;27;20416;-66
2022/05/13 09:37:26;;;;;;;5.10;1.38;;;19.50;52.70;;;;;;5135200;27;20152;-67
2022/05/13 09:40:17;;;;;;;4.18;1.48;;;19.40;52.80;;;;;;5120500;27;20039;-67
2022/05/13 09:42:46;;;;;;;9.23;1.45;;;19.40;52.80;;;;;;5116814;28;20027;-67
2022/05/13 09:45:31;;;;;;;7.07;1.80;;;19.60;52.70;;;;;;5116066;28;20395;-67
2022/05/13 09:48:05;;;;;;;8.18;2.08;;;19.70;52.10;;;;;;5135910;27;20084;-67
2022/05/13 09:50:35;;;;;;;4.55;1.90;;;19.80;51.80;;;;;;5135038;27;20028;-67
2022/05/13 09:53:07;;;;;;;7.30;2.15;;;19.80;51.60;;;;;;5136626;27;20031;-67
2022/05/13 09:55:38;;;;;;;6.07;1.95;;;20.00;51.00;;;;;;5135971;27;20035;-67
2022/05/13 09:58:10;;;;;;;6.03;1.88;;;20.00;50.90;;;;;;5132083;27;20349;-67
2022/05/13 10:00:39;;;;;;;6.20;1.30;;;19.80;51.30;;;;;;5132031;27;20027;-66
2022/05/13 10:03:08;;;;;;;5.95;1.83;;;19.70;51.60;;;;;;5121931;27;20034;-67
2022/05/13 10:05:34;;;;;;;5.53;1.70;;;19.60;51.60;;;;;;5130030;27;20025;-65
2022/05/13 10:08:05;;;;;;;7.03;1.85;;;19.50;51.70;;;;;;5131963;27;20027;-66
2022/05/13 10:14:03;;;;;;;6.57;1.63;;;19.60;51.50;;;;;;5131560;27;20026;-66
2022/05/13 10:16:35;;;;;;;4.15;1.50;;;19.60;51.50;;;;;;5117520;27;20023;-67
2022/05/13 10:19:13;;;;;;;6.50;1.50;;;19.60;51.50;;;;;;5124746;27;20114;-65
2022/05/13 10:22:00;;;;;;;7.93;2.00;;;19.60;51.60;;;;;;5128733;27;20098;-65
2022/05/13 10:24:38;;;;;;;5.88;1.80;;;19.50;52.00;;;;;;5117842;27;20039;-65
2022/05/13 10:27:07;;;;;;;8.23;2.20;;;19.40;52.30;;;;;;5121504;27;20027;-65
2022/05/13 10:29:45;;;;;;;6.20;2.00;;;19.30;52.50;;;;;;5119864;27;20032;-65
2022/05/13 10:32:19;;;;;;;5.68;2.10;;;19.50;52.40;;;;;;5119286;27;20061;-66
2022/05/13 10:34:48;;;;;;;7.32;2.00;;;19.70;51.70;;;;;;5127190;27;20127;-66
2022/05/13 10:37:25;;;;;;;5.78;1.85;;;19.90;50.90;;;;;;5119415;27;20384;-65
2022/05/13 10:40:02;;;;;;;6.30;1.80;;;19.90;50.30;;;;;;5115020;28;20416;-66
2022/05/13 10:42:35;;;;;;;6.10;1.67;;;19.80;50.60;;;;;;5118102;27;20015;-66
2022/05/13 10:45:15;;;;;;;6.88;1.73;;;19.80;50.70;;;;;;5131653;27;20504;-65
2022/05/13 10:47:45;;;;;;;5.20;1.48;;;20.10;50.50;;;;;;5116583;27;20027;-65
2022/05/13 10:50:21;;;;;;;6.47;1.70;;;20.40;50.00;;;;;;5121825;27;20058;-65
2022/05/13 10:53:05;;;;;;;5.40;1.50;;;20.90;49.50;;;;;;5125217;27;20027;-65
2022/05/13 10:55:30;;;;;;;5.65;1.60;;;21.30;48.80;;;;;;5115449;27;20071;-66
2022/05/13 10:58:17;;;;;;;5.65;1.42;;;21.60;48.00;;;;;;5113591;27;20374;-65
2022/05/13 11:01:07;;;;;;;4.18;1.50;;;21.80;47.00;;;;;;5119617;27;20027;-66
2022/05/13 11:04:08;;;;;;;3.22;1.15;;;22.00;46.70;;;;;;5122223;27;20394;-65
2022/05/13 11:07:01;;;;;;;6.47;1.58;;;22.10;46.40;;;;;;5063342;28;20032;-66
2022/05/13 11:09:33;;;;;;;2.30;0.93;;;21.90;46.60;;;;;;5050176;28;20041;-68
2022/05/13 11:12:26;;;;;;;4.85;1.45;;;21.60;47.00;;;;;;5072182;28;20024;-67
2022/05/13 11:15:13;;;;;;;3.70;1.30;;;21.30;47.30;;;;;;5052137;28;20052;-65
2022/05/13 11:17:58;;;;;;;5.78;1.70;;;20.80;47.60;;;;;;5053982;28;20032;-67
2022/05/13 11:20:34;;;;;;;5.60;1.63;;;20.90;47.80;;;;;;5037167;28;20166;-67
2022/05/13 11:23:18;;;;;;;5.50;1.52;;;21.00;47.30;;;;;;5070951;28;20068;-67
2022/05/13 11:26:00;;;;;;;4.78;1.30;;;21.00;47.10;;;;;;5071140;28;20170;-65
2022/05/13 11:29:02;;;;;;;4.70;1.48;;;21.20;47.00;;;;;;5065598;28;20484;-65
2022/05/13 11:31:37;;;;;;;;;;;21.50;46.70;;;;;;5014534;28;20035;-66
2022/05/13 11:34:26;;;;;;;6.18;1.30;;;21.70;46.60;;;;;;5063925;28;19912;-67
2022/05/13 11:37:13;;;;;;;4.25;1.20;;;22.00;46.10;;;;;;5054889;28;20072;-67
2022/05/13 11:40:02;;;;;;;4.90;1.35;;;22.00;45.70;;;;;;5072214;27;20081;-67
2022/05/13 11:43:18;;;;;;;4.70;1.25;;;21.80;45.60;;;;;;5138144;27;20027;-66
2022/05/13 11:46:11;;;;;;;3.72;1.20;;;21.50;46.00;;;;;;5136992;27;20481;-66
2022/05/13 11:48:40;;;;;;;4.55;1.00;;;21.30;46.20;;;;;;5135879;27;20042;-67
2022/05/13 11:51:15;;;;;;;5.88;1.48;;;21.10;46.30;;;;;;5133389;27;20039;-66
2022/05/13 11:53:41;;;;;;;6.57;1.45;;;20.90;46.50;;;;;;5131924;27;20023;-66
2022/05/13 11:56:31;;;;;;;4.63;1.45;;;20.70;46.80;;;;;;5127203;27;20058;-66
2022/05/13 11:59:11;;;;;;;6.07;1.42;;;20.70;47.10;;;;;;5126713;27;20111;-66
2022/05/13 12:01:36;;;;;;;8.43;1.65;;;20.70;47.30;;;;;;5116917;27;20173;-66
2022/05/13 12:04:11;;;;;;;10.02;1.52;;;20.60;47.30;;;;;;5117593;28;20114;-67
2022/05/13 12:07:00;;;;;;;7.75;2.00;;;20.50;47.50;;;;;;5135672;27;20027;-67
2022/05/13 12:09:39;;;;;;;5.22;1.27;;;20.50;47.70;;;;;;5133796;27;20035;-67
2022/05/13 12:12:50;;;;;;;3.80;1.33;;;20.70;47.40;;;;;;5122319;27;20032;-67
2022/05/13 12:15:37;;;;;;;4.68;1.30;;;20.90;47.20;;;;;;5078524;28;20036;-67
2022/05/13 12:18:05;;;;;;;6.35;1.40;;;20.80;47.00;;;;;;5076539;28;20036;-67
2022/05/13 12:21:06;;;;;;;6.25;1.58;;;20.80;47.20;;;;;;5074911;28;20568;-65
2022/05/13 12:23:34;;;;;;;5.43;1.42;;;20.70;47.00;;;;;;5088498;28;20057;-66
2022/05/13 12:26:02;;;;;;;5.70;1.50;;;20.70;47.20;;;;;;5065114;28;20093;-67
2022/05/13 12:28:58;;;;;;;5.10;1.38;;;20.80;47.10;;;;;;5055459;28;20102;-66
2022/05/13 12:31:37;;;;;;;5.07;1.35;;;20.80;47.00;;;;;;5069173;28;20171;-67
2022/05/13 12:40:00;;;;;;;3.70;1.17;;;20.80;46.90;;;;;;5068365;28;20052;-67
2022/05/13 12:42:46;;;;;;;5.82;1.48;;;20.90;47.00;;;;;;5065260;28;20116;-67
2022/05/13 12:45:38;;;;;;;5.78;1.60;;;20.80;47.00;;;;;;5068420;28;20054;-67
2022/05/13 12:48:06;;;;;;;4.03;1.40;;;20.80;47.10;;;;;;5112593;27;20105;-65
2022/05/13 12:50:43;;;;;;;5.47;1.40;;;20.80;47.20;;;;;;5133249;27;20080;-67
2022/05/13 12:53:27;;;;;;;6.38;1.65;;;20.80;47.00;;;;;;5125042;27;20410;-65
2022/05/13 12:55:56;;;;;;;3.30;1.20;;;20.90;46.70;;;;;;5121457;27;20028;-65
2022/05/13 12:58:24;;;;;;;4.10;1.20;;;20.90;46.50;;;;;;5131118;27;20031;-64
2022/05/13 13:00:52;;;;;;;4.32;1.20;;;20.90;46.30;;;;;;5129572;27;20055;-67
2022/05/13 13:03:20;;;;;;;3.00;1.20;;;21.00;46.10;;;;;;5133107;27;20332;-65
2022/05/13 13:05:57;;;;;;;4.75;1.35;;;21.00;45.80;;;;;;5125471;27;20031;-67
2022/05/13 13:08:31;;;;;;;4.45;1.25;;;21.00;45.80;;;;;;5126673;27;20023;-69
2022/05/13 13:11:15;;;;;;;5.28;1.30;;;21.10;45.90;;;;;;5136401;27;20049;-66
2022/05/13 13:14:05;;;;;;;5.75;1.20;;;21.20;46.10;;;;;;5133237;27;20444;-71
2022/05/13 13:16:46;;;;;;;2.30;1.20;;;21.30;46.00;;;;;;5134197;27;20024;-69
2022/05/13 13:19:14;;;;;;;4.82;1.20;;;21.30;46.40;;;;;;5133976;27;20676;-70
2022/05/13 13:21:41;;;;;;;5.70;1.33;;;21.40;45.70;;;;;;5115934;27;20077;-69
2022/05/13 13:24:19;;;;;;;5.00;1.58;;;21.40;45.40;;;;;;5127961;27;20061;-67
2022/05/13 13:26:48;;;;;;;4.90;1.60;;;21.40;45.20;;;;;;5132783;27;20034;-64
2022/05/13 13:29:25;;;;;;;5.70;1.50;;;21.30;45.20;;;;;;5134600;27;20027;-64
2022/05/13 13:31:51;;;;;;;4.93;1.60;;;21.40;45.10;;;;;;5126072;27;20338;-65